createdAt,value
2023-03-01T00:00:18.365Z,0.00
2023-03-01T00:01:18.292Z,0.00
2023-03-01T00:02:18.370Z,0.00
2023-03-01T00:03:18.303Z,0.00
2023-03-01T00:04:18.357Z,0.00
2023-03-01T00:05:18.259Z,0.00
2023-03-01T00:06:18.283Z,0.00
2023-03-01T00:07:18.293Z,0.00
2023-03-01T00:08:18.263Z,0.00
2023-03-01T00:09:18.222Z,0.00
2023-03-01T00:10:18.227Z,0.00
2023-03-01T00:11:18.280Z,0.00
2023-03-01T00:12:18.232Z,0.00
2023-03-01T00:13:18.204Z,0.00
2023-03-01T00:14:18.244Z,0.00
2023-03-01T00:15:18.161Z,0.00
2023-03-01T00:16:18.231Z,0.00
2023-03-01T00:17:18.179Z,0.00
2023-03-01T00:18:18.150Z,0.00
2023-03-01T00:19:18.139Z,0.00
2023-03-01T00:20:18.115Z,0.00
2023-03-01T00:21:18.132Z,0.00
2023-03-01T00:22:18.113Z,0.00
2023-03-01T00:23:18.117Z,0.00
2023-03-01T00:24:18.106Z,0.00
2023-03-01T00:25:18.065Z,0.00
2023-03-01T00:26:18.066Z,0.00
2023-03-01T00:27:18.089Z,0.00
2023-03-01T00:28:18.102Z,0.00
2023-03-01T00:29:18.042Z,0.00
2023-03-01T00:30:18.028Z,0.00
2023-03-01T00:31:18.013Z,0.00
2023-03-01T00:32:18.055Z,0.00
2023-03-01T00:33:18.004Z,0.00
2023-03-01T00:34:18.024Z,0.00
2023-03-01T00:35:18.005Z,0.00
2023-03-01T00:36:17.974Z,0.00
2023-03-01T00:37:17.957Z,0.00
2023-03-01T00:38:17.964Z,0.00
2023-03-01T00:39:17.933Z,0.00
2023-03-01T00:40:17.959Z,0.00
2023-03-01T00:41:17.931Z,0.00
2023-03-01T00:42:17.908Z,0.00
2023-03-01T00:43:17.880Z,0.00
2023-03-01T00:44:17.937Z,0.00
2023-03-01T00:45:17.875Z,0.00
2023-03-01T00:46:18.008Z,0.00
2023-03-01T00:47:17.877Z,0.00
2023-03-01T00:48:17.863Z,0.00
2023-03-01T00:49:17.858Z,0.00
2023-03-01T00:50:17.870Z,0.00
2023-03-01T00:51:17.843Z,0.00
2023-03-01T00:52:17.828Z,0.00
2023-03-01T00:53:17.796Z,0.00
2023-03-01T00:54:17.856Z,0.00
2023-03-01T00:55:17.796Z,0.00
2023-03-01T00:56:17.800Z,0.00
2023-03-01T00:57:17.762Z,0.00
2023-03-01T00:58:17.746Z,0.00
2023-03-01T00:59:17.753Z,0.00
2023-03-01T01:00:17.772Z,0.00
2023-03-01T01:01:17.786Z,0.00
2023-03-01T01:02:17.780Z,0.00
2023-03-01T01:03:17.697Z,0.00
2023-03-01T01:04:17.700Z,0.00
2023-03-01T01:05:17.699Z,0.00
2023-03-01T01:06:17.674Z,0.00
2023-03-01T01:07:17.697Z,0.00
2023-03-01T01:08:17.675Z,0.00
2023-03-01T01:09:17.650Z,0.00
2023-03-01T01:10:17.647Z,0.00
2023-03-01T01:11:17.635Z,0.00
2023-03-01T01:12:17.626Z,0.00
2023-03-01T01:13:17.662Z,0.00
2023-03-01T01:14:17.625Z,0.00
2023-03-01T01:15:17.612Z,0.00
2023-03-01T01:16:17.620Z,0.00
2023-03-01T01:17:17.595Z,0.00
2023-03-01T01:18:17.556Z,0.00
2023-03-01T01:19:17.530Z,0.00
2023-03-01T01:20:17.565Z,0.00
2023-03-01T01:21:17.591Z,0.00
2023-03-01T01:22:17.520Z,0.00
2023-03-01T01:23:17.490Z,0.00
2023-03-01T01:24:17.504Z,0.00
2023-03-01T01:25:17.481Z,0.00
2023-03-01T01:26:17.491Z,0.00
2023-03-01T01:27:17.465Z,0.00
2023-03-01T01:28:17.468Z,0.00
2023-03-01T01:29:17.439Z,0.00
2023-03-01T01:30:17.429Z,0.00
2023-03-01T01:31:17.482Z,0.00
2023-03-01T01:32:17.518Z,0.00
2023-03-01T01:33:17.414Z,0.00
2023-03-01T01:34:17.390Z,0.00
2023-03-01T01:35:17.383Z,0.00
2023-03-01T01:36:17.372Z,0.00
2023-03-01T01:37:17.347Z,0.00
2023-03-01T01:38:17.362Z,0.00
2023-03-01T01:39:17.391Z,0.00
2023-03-01T01:40:17.375Z,0.00
2023-03-01T01:41:17.358Z,0.00
2023-03-01T01:42:17.322Z,0.00
2023-03-01T01:43:17.344Z,0.00
2023-03-01T01:44:17.287Z,0.00
2023-03-01T01:45:17.281Z,0.00
2023-03-01T01:46:17.348Z,0.00
2023-03-01T01:47:17.262Z,0.00
2023-03-01T01:48:17.287Z,0.00
2023-03-01T01:49:17.304Z,0.00
2023-03-01T01:50:17.227Z,0.00
2023-03-01T01:51:17.221Z,0.00
2023-03-01T01:52:17.202Z,0.00
2023-03-01T01:53:17.226Z,0.00
2023-03-01T01:54:17.208Z,0.00
2023-03-01T01:55:17.205Z,0.00
2023-03-01T01:56:17.231Z,0.00
2023-03-01T01:57:17.222Z,0.00
2023-03-01T01:58:17.158Z,0.00
2023-03-01T01:59:17.145Z,0.00
2023-03-01T02:00:17.113Z,0.00
2023-03-01T02:01:17.120Z,0.00
2023-03-01T02:02:17.161Z,0.00
2023-03-01T02:03:17.188Z,0.00
2023-03-01T02:04:17.077Z,0.00
2023-03-01T02:05:17.099Z,0.00
2023-03-01T02:06:17.061Z,0.00
2023-03-01T02:07:17.071Z,0.00
2023-03-01T02:08:17.046Z,0.00
2023-03-01T02:09:17.039Z,0.00
2023-03-01T02:10:17.030Z,0.00
2023-03-01T02:11:17.058Z,0.00
2023-03-01T02:12:17.052Z,0.00
2023-03-01T02:13:17.022Z,0.00
2023-03-01T02:14:16.982Z,0.00
2023-03-01T02:15:16.987Z,0.00
2023-03-01T02:16:16.986Z,0.00
2023-03-01T02:17:17.011Z,0.00
2023-03-01T02:18:16.972Z,0.00
2023-03-01T02:19:16.952Z,0.00
2023-03-01T02:20:16.933Z,0.00
2023-03-01T02:21:16.979Z,0.00
2023-03-01T02:22:16.973Z,0.00
2023-03-01T02:23:16.904Z,0.00
2023-03-01T02:24:18.692Z,0.00
2023-03-01T02:25:16.900Z,0.00
2023-03-01T02:26:16.895Z,0.00
2023-03-01T02:27:16.870Z,0.00
2023-03-01T02:28:16.870Z,0.00
2023-03-01T02:29:16.849Z,0.00
2023-03-01T02:30:16.820Z,0.00
2023-03-01T02:31:16.892Z,0.00
2023-03-01T02:32:16.921Z,0.00
2023-03-01T02:33:16.796Z,0.00
2023-03-01T02:34:16.781Z,0.00
2023-03-01T02:35:16.824Z,0.00
2023-03-01T02:36:16.793Z,0.00
2023-03-01T02:37:16.744Z,0.00
2023-03-01T02:38:16.753Z,0.00
2023-03-01T02:39:16.765Z,0.00
2023-03-01T02:40:16.752Z,0.00
2023-03-01T02:41:16.724Z,0.00
2023-03-01T02:42:16.710Z,0.00
2023-03-01T02:43:16.721Z,0.00
2023-03-01T02:44:16.755Z,0.00
2023-03-01T02:45:16.692Z,0.00
2023-03-01T02:46:16.694Z,0.00
2023-03-01T02:47:16.675Z,0.00
2023-03-01T02:48:16.660Z,0.00
2023-03-01T02:49:16.661Z,0.00
2023-03-01T02:50:16.627Z,0.00
2023-03-01T02:51:16.622Z,0.00
2023-03-01T02:52:16.688Z,0.00
2023-03-01T02:53:16.636Z,0.00
2023-03-01T02:54:16.592Z,0.00
2023-03-01T02:55:16.635Z,0.00
2023-03-01T02:56:16.562Z,0.00
2023-03-01T02:57:16.593Z,0.00
2023-03-01T02:58:16.551Z,0.00
2023-03-01T02:59:16.571Z,0.00
2023-03-01T03:00:16.524Z,0.00
2023-03-01T03:01:16.574Z,0.00
2023-03-01T03:02:16.543Z,0.00
2023-03-01T03:03:16.519Z,0.00
2023-03-01T03:04:16.526Z,0.00
2023-03-01T03:05:16.496Z,0.00
2023-03-01T03:06:16.456Z,0.00
2023-03-01T03:07:16.470Z,0.00
2023-03-01T03:08:16.521Z,0.00
2023-03-01T03:09:16.879Z,0.00
2023-03-01T03:10:16.430Z,0.00
2023-03-01T03:11:16.476Z,0.00
2023-03-01T03:12:16.407Z,0.00
2023-03-01T03:13:16.449Z,0.00
2023-03-01T03:14:16.391Z,0.00
2023-03-01T03:15:16.379Z,0.00
2023-03-01T03:16:16.404Z,0.00
2023-03-01T03:17:16.377Z,0.00
2023-03-01T03:18:16.417Z,0.00
2023-03-01T03:19:16.371Z,0.00
2023-03-01T03:20:16.343Z,0.00
2023-03-01T03:21:16.369Z,0.00
2023-03-01T03:22:16.303Z,0.00
2023-03-01T03:23:16.324Z,0.00
2023-03-01T03:24:16.300Z,0.00
2023-03-01T03:25:16.294Z,0.00
2023-03-01T03:26:16.358Z,0.00
2023-03-01T03:27:16.276Z,0.00
2023-03-01T03:28:16.280Z,0.00
2023-03-01T03:29:16.245Z,0.00
2023-03-01T03:30:16.245Z,0.00
2023-03-01T03:31:16.302Z,0.00
2023-03-01T03:32:16.227Z,0.00
2023-03-01T03:33:16.220Z,0.00
2023-03-01T03:34:16.189Z,0.00
2023-03-01T03:35:16.200Z,0.00
2023-03-01T03:36:16.164Z,0.00
2023-03-01T03:37:16.152Z,0.00
2023-03-01T03:38:16.135Z,0.00
2023-03-01T03:39:16.160Z,0.00
2023-03-01T03:40:16.180Z,0.00
2023-03-01T03:41:16.138Z,0.00
2023-03-01T03:42:16.122Z,0.00
2023-03-01T03:43:16.138Z,0.00
2023-03-01T03:44:16.105Z,0.00
2023-03-01T03:45:16.078Z,0.00
2023-03-01T03:46:16.077Z,0.00
2023-03-01T03:47:16.076Z,0.00
2023-03-01T03:48:16.103Z,0.00
2023-03-01T03:49:16.045Z,0.00
2023-03-01T03:50:16.041Z,0.00
2023-03-01T03:51:16.073Z,0.00
2023-03-01T03:52:16.000Z,0.00
2023-03-01T03:53:15.999Z,0.00
2023-03-01T03:54:16.023Z,0.00
2023-03-01T03:55:15.991Z,0.00
2023-03-01T03:56:15.960Z,0.00
2023-03-01T03:57:15.995Z,0.00
2023-03-01T03:58:15.962Z,0.00
2023-03-01T03:59:15.981Z,0.00
2023-03-01T04:00:15.914Z,0.00
2023-03-01T04:01:15.998Z,0.00
2023-03-01T04:02:15.978Z,0.00
2023-03-01T04:03:15.903Z,0.00
2023-03-01T04:04:15.914Z,0.00
2023-03-01T04:05:15.890Z,0.00
2023-03-01T04:06:15.897Z,0.00
2023-03-01T04:07:15.886Z,0.00
2023-03-01T04:08:15.850Z,0.00
2023-03-01T04:09:15.841Z,0.00
2023-03-01T04:10:15.852Z,0.00
2023-03-01T04:11:15.843Z,0.00
2023-03-01T04:12:15.819Z,0.00
2023-03-01T04:13:15.804Z,0.00
2023-03-01T04:14:15.813Z,0.00
2023-03-01T04:15:15.804Z,0.00
2023-03-01T04:16:15.836Z,0.00
2023-03-01T04:17:15.765Z,0.00
2023-03-01T04:18:15.780Z,0.00
2023-03-01T04:19:15.755Z,0.00
2023-03-01T04:20:15.755Z,0.00
2023-03-01T04:21:15.762Z,0.00
2023-03-01T04:22:15.710Z,0.00
2023-03-01T04:23:15.747Z,0.00
2023-03-01T04:24:15.736Z,0.00
2023-03-01T04:25:15.705Z,0.00
2023-03-01T04:26:15.658Z,0.00
2023-03-01T04:27:15.734Z,0.00
2023-03-01T04:28:15.669Z,0.00
2023-03-01T04:29:15.662Z,0.00
2023-03-01T04:30:15.660Z,0.00
2023-03-01T04:31:15.689Z,0.00
2023-03-01T04:32:15.747Z,0.00
2023-03-01T04:33:15.684Z,0.00
2023-03-01T04:34:15.637Z,0.00
2023-03-01T04:35:15.587Z,0.00
2023-03-01T04:36:15.629Z,0.00
2023-03-01T04:37:15.605Z,0.00
2023-03-01T04:38:15.587Z,0.00
2023-03-01T04:39:15.545Z,0.00
2023-03-01T04:40:15.524Z,0.00
2023-03-01T04:41:15.537Z,0.00
2023-03-01T04:42:15.523Z,0.00
2023-03-01T04:43:15.682Z,0.00
2023-03-01T04:44:15.500Z,0.00
2023-03-01T04:45:15.509Z,0.00
2023-03-01T04:46:15.835Z,0.00
2023-03-01T04:47:15.479Z,0.00
2023-03-01T04:48:15.464Z,0.00
2023-03-01T04:49:15.462Z,0.00
2023-03-01T04:50:15.454Z,0.00
2023-03-01T04:51:15.464Z,0.00
2023-03-01T04:52:15.416Z,0.00
2023-03-01T04:53:15.414Z,0.00
2023-03-01T04:54:15.441Z,0.00
2023-03-01T04:55:15.408Z,0.00
2023-03-01T04:56:15.395Z,0.00
2023-03-01T04:57:15.412Z,0.00
2023-03-01T04:58:15.390Z,0.00
2023-03-01T04:59:15.409Z,0.00
2023-03-01T05:00:15.334Z,0.00
2023-03-01T05:01:15.365Z,0.00
2023-03-01T05:02:15.304Z,0.00
2023-03-01T05:03:15.390Z,0.00
2023-03-01T05:04:15.377Z,0.00
2023-03-01T05:05:15.305Z,0.00
2023-03-01T05:06:15.287Z,0.00
2023-03-01T05:07:15.287Z,0.00
2023-03-01T05:08:15.271Z,0.00
2023-03-01T05:09:15.277Z,0.00
2023-03-01T05:10:15.254Z,0.00
2023-03-01T05:11:15.240Z,0.00
2023-03-01T05:12:15.219Z,0.00
2023-03-01T05:13:15.295Z,0.00
2023-03-01T05:14:15.197Z,0.00
2023-03-01T05:15:15.245Z,0.00
2023-03-01T05:16:15.293Z,0.00
2023-03-01T05:17:15.174Z,0.00
2023-03-01T05:18:15.170Z,0.00
2023-03-01T05:19:15.209Z,0.00
2023-03-01T05:20:15.165Z,0.00
2023-03-01T05:21:15.146Z,0.00
2023-03-01T05:22:15.762Z,0.00
2023-03-01T05:23:15.120Z,0.00
2023-03-01T05:24:15.099Z,0.00
2023-03-01T05:25:15.109Z,0.00
2023-03-01T05:26:30.505Z,0.00
2023-03-01T05:27:15.877Z,0.00
2023-03-01T05:28:15.057Z,0.00
2023-03-01T05:29:15.087Z,0.00
2023-03-01T05:30:15.108Z,0.00
2023-03-01T05:31:15.064Z,0.00
2023-03-01T05:32:15.074Z,0.00
2023-03-01T05:33:15.031Z,0.00
2023-03-01T05:34:14.986Z,0.00
2023-03-01T05:35:15.011Z,0.00
2023-03-01T05:36:15.065Z,0.00
2023-03-01T05:37:15.018Z,0.00
2023-03-01T05:38:14.962Z,0.00
2023-03-01T05:39:14.961Z,0.00
2023-03-01T05:40:14.936Z,0.00
2023-03-01T05:41:14.928Z,0.00
2023-03-01T05:42:14.891Z,1.00
2023-03-01T05:43:14.908Z,1.00
2023-03-01T05:44:14.848Z,1.00
2023-03-01T05:45:14.875Z,1.00
2023-03-01T05:46:14.893Z,0.00
2023-03-01T05:47:14.850Z,2.00
2023-03-01T05:48:14.831Z,1.00
2023-03-01T05:49:14.836Z,3.00
2023-03-01T05:50:14.772Z,2.00
2023-03-01T05:51:14.798Z,1.00
2023-03-01T05:52:14.821Z,4.00
2023-03-01T05:53:14.785Z,1.00
2023-03-01T05:54:14.746Z,1.00
2023-03-01T05:55:14.743Z,2.00
2023-03-01T05:56:14.746Z,5.00
2023-03-01T05:57:14.729Z,4.00
2023-03-01T05:58:14.729Z,5.00
2023-03-01T05:59:14.744Z,7.00
2023-03-01T06:00:14.695Z,8.00
2023-03-01T06:01:14.768Z,9.00
2023-03-01T06:02:14.708Z,12.00
2023-03-01T06:03:14.678Z,12.00
2023-03-01T06:04:14.695Z,17.00
2023-03-01T06:05:14.736Z,24.00
2023-03-01T06:06:14.639Z,23.00
2023-03-01T06:07:14.645Z,30.00
2023-03-01T06:08:14.689Z,37.00
2023-03-01T06:09:14.620Z,39.00
2023-03-01T06:10:14.671Z,43.00
2023-03-01T06:11:14.596Z,52.00
2023-03-01T06:12:14.576Z,59.00
2023-03-01T06:13:14.585Z,66.00
2023-03-01T06:14:14.578Z,76.00
2023-03-01T06:15:14.624Z,83.00
2023-03-01T06:16:14.614Z,93.00
2023-03-01T06:17:14.528Z,104.00
2023-03-01T06:18:14.547Z,119.00
2023-03-01T06:19:14.550Z,124.00
2023-03-01T06:20:14.518Z,135.00
2023-03-01T06:21:14.496Z,147.00
2023-03-01T06:22:14.545Z,160.00
2023-03-01T06:23:14.505Z,172.00
2023-03-01T06:24:14.499Z,188.00
2023-03-01T06:25:14.469Z,204.00
2023-03-01T06:26:14.433Z,219.00
2023-03-01T06:27:14.451Z,236.00
2023-03-01T06:28:14.434Z,250.00
2023-03-01T06:29:14.433Z,269.00
2023-03-01T06:30:14.425Z,288.00
2023-03-01T06:31:14.515Z,305.00
2023-03-01T06:32:14.464Z,320.00
2023-03-01T06:33:14.383Z,341.00
2023-03-01T06:34:14.396Z,360.00
2023-03-01T06:35:14.341Z,377.00
2023-03-01T06:36:14.366Z,393.00
2023-03-01T06:37:14.343Z,415.00
2023-03-01T06:38:14.376Z,439.00
2023-03-01T06:39:14.310Z,454.00
2023-03-01T06:40:15.415Z,472.00
2023-03-01T06:41:14.351Z,486.00
2023-03-01T06:42:14.337Z,514.00
2023-03-01T06:43:14.289Z,533.00
2023-03-01T06:44:14.266Z,556.00
2023-03-01T06:45:14.279Z,579.00
2023-03-01T06:46:14.286Z,594.00
2023-03-01T06:47:14.269Z,620.00
2023-03-01T06:48:14.300Z,641.00
2023-03-01T06:49:14.208Z,666.00
2023-03-01T06:50:14.250Z,682.00
2023-03-01T06:51:14.202Z,707.00
2023-03-01T06:52:14.194Z,728.00
2023-03-01T06:53:14.211Z,749.00
2023-03-01T06:54:14.229Z,770.00
2023-03-01T06:55:14.179Z,787.00
2023-03-01T06:56:14.172Z,811.00
2023-03-01T06:57:14.303Z,828.00
2023-03-01T06:58:14.138Z,847.00
2023-03-01T06:59:14.134Z,862.00
2023-03-01T07:00:14.137Z,878.00
2023-03-01T07:01:14.130Z,893.00
2023-03-01T07:02:14.116Z,907.00
2023-03-01T07:03:14.169Z,924.00
2023-03-01T07:04:14.102Z,938.00
2023-03-01T07:05:14.071Z,953.00
2023-03-01T07:06:14.039Z,970.00
2023-03-01T07:07:14.047Z,984.00
2023-03-01T07:08:14.044Z,1000.00
2023-03-01T07:09:13.999Z,1013.00
2023-03-01T07:10:14.017Z,1026.00
2023-03-01T07:11:14.082Z,1040.00
2023-03-01T07:12:14.015Z,1054.00
2023-03-01T07:13:13.979Z,1067.00
2023-03-01T07:14:14.015Z,1076.00
2023-03-01T07:15:13.955Z,1091.00
2023-03-01T07:16:14.019Z,1101.00
2023-03-01T07:17:13.940Z,1116.00
2023-03-01T07:18:13.927Z,1128.00
2023-03-01T07:19:13.925Z,1138.00
2023-03-01T07:20:13.957Z,1151.00
2023-03-01T07:21:13.930Z,1164.00
2023-03-01T07:22:13.900Z,1173.00
2023-03-01T07:23:13.884Z,1186.00
2023-03-01T07:24:13.866Z,1198.00
2023-03-01T07:25:13.837Z,1209.00
2023-03-01T07:26:13.845Z,1220.00
2023-03-01T07:27:13.841Z,1233.00
2023-03-01T07:28:13.882Z,1247.00
2023-03-01T07:29:13.852Z,1263.00
2023-03-01T07:30:14.290Z,1275.00
2023-03-01T07:31:13.806Z,1290.00
2023-03-01T07:32:13.961Z,1295.00
2023-03-01T07:33:13.841Z,1307.00
2023-03-01T07:34:13.862Z,1317.00
2023-03-01T07:35:13.816Z,1324.00
2023-03-01T07:36:13.811Z,1334.00
2023-03-01T07:37:13.778Z,1346.00
2023-03-01T07:38:13.778Z,1350.00
2023-03-01T07:39:13.732Z,1357.00
2023-03-01T07:40:13.781Z,1368.00
2023-03-01T07:41:13.710Z,1378.00
2023-03-01T07:42:13.694Z,1394.00
2023-03-01T07:43:13.674Z,1408.00
2023-03-01T07:44:13.748Z,1412.00
2023-03-01T07:45:13.694Z,1417.00
2023-03-01T07:46:13.668Z,1428.00
2023-03-01T07:47:13.637Z,1437.00
2023-03-01T07:48:13.711Z,1444.00
2023-03-01T07:49:13.615Z,1454.00
2023-03-01T07:50:13.640Z,1463.00
2023-03-01T07:51:13.624Z,1469.00
2023-03-01T07:52:13.605Z,1474.00
2023-03-01T07:53:13.579Z,1477.00
2023-03-01T07:54:13.616Z,1485.00
2023-03-01T07:55:13.547Z,1497.00
2023-03-01T07:56:13.564Z,1507.00
2023-03-01T07:57:13.572Z,1519.00
2023-03-01T07:58:13.527Z,1529.00
2023-03-01T07:59:13.515Z,1537.00
2023-03-01T08:00:13.542Z,1544.00
2023-03-01T08:01:13.505Z,1550.00
2023-03-01T08:02:13.527Z,1551.00
2023-03-01T08:03:13.575Z,1557.00
2023-03-01T08:04:13.495Z,1566.00
2023-03-01T08:05:13.460Z,1572.00
2023-03-01T08:06:13.453Z,1577.00
2023-03-01T08:07:13.482Z,1576.00
2023-03-01T08:08:13.442Z,1575.00
2023-03-01T08:09:13.430Z,1581.00
2023-03-01T08:10:13.474Z,1589.00
2023-03-01T08:11:13.504Z,1593.00
2023-03-01T08:12:13.385Z,1595.00
2023-03-01T08:13:13.434Z,1599.00
2023-03-01T08:14:13.402Z,1599.00
2023-03-01T08:15:13.397Z,1597.00
2023-03-01T08:16:13.486Z,1597.00
2023-03-01T08:17:13.333Z,1597.00
2023-03-01T08:18:13.519Z,1600.00
2023-03-01T08:19:13.370Z,1604.00
2023-03-01T08:20:13.341Z,1607.00
2023-03-01T08:21:13.341Z,1610.00
2023-03-01T08:22:13.305Z,1616.00
2023-03-01T08:23:13.272Z,1620.00
2023-03-01T08:24:13.262Z,1629.00
2023-03-01T08:25:13.286Z,1630.00
2023-03-01T08:26:13.275Z,1637.00
2023-03-01T08:27:13.264Z,1645.00
2023-03-01T08:28:13.243Z,1650.00
2023-03-01T08:29:13.244Z,1657.00
2023-03-01T08:30:13.257Z,1659.00
2023-03-01T08:31:13.189Z,1667.00
2023-03-01T08:32:13.357Z,1675.00
2023-03-01T08:33:13.264Z,1681.00
2023-03-01T08:34:13.211Z,1686.00
2023-03-01T08:35:13.148Z,1693.00
2023-03-01T08:36:13.183Z,1706.00
2023-03-01T08:37:13.182Z,1718.00
2023-03-01T08:38:13.150Z,1728.00
2023-03-01T08:39:13.151Z,1744.00
2023-03-01T08:40:13.102Z,1752.00
2023-03-01T08:41:13.109Z,1765.00
2023-03-01T08:42:13.114Z,1779.00
2023-03-01T08:43:13.099Z,1792.00
2023-03-01T08:44:13.104Z,1807.00
2023-03-01T08:45:13.051Z,1823.00
2023-03-01T08:46:13.107Z,1841.00
2023-03-01T08:47:13.065Z,1851.00
2023-03-01T08:48:13.042Z,1860.00
2023-03-01T08:49:13.049Z,1882.00
2023-03-01T08:50:13.018Z,1906.00
2023-03-01T08:51:12.991Z,1961.00
2023-03-01T08:52:13.009Z,971.00
2023-03-01T08:53:13.061Z,1022.00
2023-03-01T08:54:12.991Z,5142.00
2023-03-01T08:55:12.955Z,8418.00
2023-03-01T08:56:12.983Z,9395.00
2023-03-01T08:57:12.944Z,10467.00
2023-03-01T08:58:12.935Z,11611.00
2023-03-01T08:59:12.936Z,15081.00
2023-03-01T09:00:12.950Z,14736.00
2023-03-01T09:01:12.924Z,10526.00
2023-03-01T09:02:12.904Z,7002.00
2023-03-01T09:03:12.901Z,6022.00
2023-03-01T09:04:13.887Z,5361.00
2023-03-01T09:05:12.860Z,4675.00
2023-03-01T09:06:12.858Z,4277.00
2023-03-01T09:07:12.831Z,4067.00
2023-03-01T09:08:12.937Z,4366.00
2023-03-01T09:09:12.818Z,4238.00
2023-03-01T09:10:12.825Z,4024.00
2023-03-01T09:11:12.812Z,4724.00
2023-03-01T09:12:12.805Z,4910.00
2023-03-01T09:13:12.828Z,4324.00
2023-03-01T09:14:12.812Z,4481.00
2023-03-01T09:15:12.851Z,4932.00
2023-03-01T09:16:12.806Z,5002.00
2023-03-01T09:17:12.835Z,4092.00
2023-03-01T09:18:12.766Z,3383.00
2023-03-01T09:19:12.734Z,2691.00
2023-03-01T09:20:12.708Z,2471.00
2023-03-01T09:21:12.724Z,2454.00
2023-03-01T09:22:12.720Z,2358.00
2023-03-01T09:23:12.671Z,2353.00
2023-03-01T09:24:12.778Z,2329.00
2023-03-01T09:25:12.656Z,2336.00
2023-03-01T09:26:12.644Z,2304.00
2023-03-01T09:27:12.642Z,2243.00
2023-03-01T09:28:27.635Z,2220.00
2023-03-01T09:29:12.627Z,2195.00
2023-03-01T09:30:12.613Z,2168.00
2023-03-01T09:31:12.658Z,2116.00
2023-03-01T09:32:12.699Z,2103.00
2023-03-01T09:33:12.608Z,2065.00
2023-03-01T09:34:12.570Z,2031.00
2023-03-01T09:35:12.576Z,2018.00
2023-03-01T09:36:12.587Z,2022.00
2023-03-01T09:37:12.559Z,2004.00
2023-03-01T09:38:12.530Z,1987.00
2023-03-01T09:39:12.537Z,1979.00
2023-03-01T09:40:12.518Z,1969.00
2023-03-01T09:41:12.524Z,1994.00
2023-03-01T09:42:12.513Z,1991.00
2023-03-01T09:43:12.493Z,1979.00
2023-03-01T09:44:12.474Z,1991.00
2023-03-01T09:45:12.489Z,1981.00
2023-03-01T09:46:12.510Z,1994.00
2023-03-01T09:47:12.464Z,1985.00
2023-03-01T09:48:12.473Z,1993.00
2023-03-01T09:49:12.426Z,1992.00
2023-03-01T09:50:12.416Z,2008.00
2023-03-01T09:51:12.390Z,2010.00
2023-03-01T09:52:12.451Z,2012.00
2023-03-01T09:53:12.383Z,2018.00
2023-03-01T09:54:12.395Z,2006.00
2023-03-01T09:55:12.349Z,2013.00
2023-03-01T09:56:12.380Z,1998.00
2023-03-01T09:57:12.353Z,2002.00
2023-03-01T09:58:12.324Z,1992.00
2023-03-01T09:59:12.337Z,2017.00
2023-03-01T10:00:12.313Z,2017.00
2023-03-01T10:01:12.315Z,1998.00
2023-03-01T10:02:12.280Z,2021.00
2023-03-01T10:03:12.293Z,2017.00
2023-03-01T10:04:12.412Z,2014.00
2023-03-01T10:05:12.398Z,2022.00
2023-03-01T10:06:14.940Z,1995.00
2023-03-01T10:07:12.238Z,2007.00
2023-03-01T10:08:12.244Z,2034.00
2023-03-01T10:09:12.237Z,2016.00
2023-03-01T10:10:12.241Z,2026.00
2023-03-01T10:11:12.212Z,2014.00
2023-03-01T10:12:12.220Z,2037.00
2023-03-01T10:13:12.219Z,2034.00
2023-03-01T10:14:12.174Z,2029.00
2023-03-01T10:15:12.174Z,2008.00
2023-03-01T10:16:12.187Z,2018.00
2023-03-01T10:17:12.134Z,2014.00
2023-03-01T10:18:12.230Z,1995.00
2023-03-01T10:19:12.113Z,1992.00
2023-03-01T10:20:12.097Z,2009.00
2023-03-01T10:21:12.076Z,2004.00
2023-03-01T10:22:12.076Z,2001.00
2023-03-01T10:23:12.159Z,1997.00
2023-03-01T10:24:12.060Z,1994.00
2023-03-01T10:25:12.052Z,2006.00
2023-03-01T10:26:12.049Z,1994.00
2023-03-01T10:27:12.092Z,2004.00
2023-03-01T10:28:12.004Z,2023.00
2023-03-01T10:29:12.037Z,2004.00
2023-03-01T10:30:12.003Z,2017.00
2023-03-01T10:31:12.007Z,2022.00
2023-03-01T10:32:11.999Z,2015.00
2023-03-01T10:33:11.993Z,2039.00
2023-03-01T10:34:11.962Z,1999.00
2023-03-01T10:35:11.966Z,2010.00
2023-03-01T10:36:11.950Z,2025.00
2023-03-01T10:37:11.915Z,2014.00
2023-03-01T10:38:11.923Z,2014.00
2023-03-01T10:39:11.943Z,2023.00
2023-03-01T10:40:11.939Z,2033.00
2023-03-01T10:41:11.876Z,2014.00
2023-03-01T10:42:11.844Z,2030.00
2023-03-01T10:43:11.916Z,2036.00
2023-03-01T10:44:11.899Z,2034.00
2023-03-01T10:45:11.873Z,2039.00
2023-03-01T10:46:11.888Z,2029.00
2023-03-01T10:47:11.845Z,2045.00
2023-03-01T10:48:11.810Z,2023.00
2023-03-01T10:49:11.822Z,2040.00
2023-03-01T10:50:11.781Z,2045.00
2023-03-01T10:51:11.789Z,2045.00
2023-03-01T10:52:11.800Z,2033.00
2023-03-01T10:53:11.767Z,2056.00
2023-03-01T10:54:11.763Z,2035.00
2023-03-01T10:55:11.777Z,2035.00
2023-03-01T10:56:11.712Z,2054.00
2023-03-01T10:57:11.730Z,2025.00
2023-03-01T10:58:11.708Z,2042.00
2023-03-01T10:59:11.699Z,2039.00
2023-03-01T11:00:11.680Z,2037.00
2023-03-01T11:01:11.706Z,2055.00
2023-03-01T11:02:23.590Z,2039.00
2023-03-01T11:03:11.701Z,2048.00
2023-03-01T11:04:11.614Z,2048.00
2023-03-01T11:05:11.622Z,2044.00
2023-03-01T11:06:11.618Z,2058.00
2023-03-01T11:07:11.612Z,2049.00
2023-03-01T11:08:11.588Z,2055.00
2023-03-01T11:09:11.642Z,2053.00
2023-03-01T11:10:11.570Z,2061.00
2023-03-01T11:11:11.559Z,2043.00
2023-03-01T11:12:11.541Z,2058.00
2023-03-01T11:13:11.546Z,2043.00
2023-03-01T11:14:24.970Z,2079.00
2023-03-01T11:15:11.562Z,2049.00
2023-03-01T11:16:11.553Z,2070.00
2023-03-01T11:17:11.519Z,2073.00
2023-03-01T11:18:14.311Z,2072.00
2023-03-01T11:19:11.493Z,2067.00
2023-03-01T11:20:11.493Z,2055.00
2023-03-01T11:21:11.464Z,2067.00
2023-03-01T11:22:11.518Z,2057.00
2023-03-01T11:23:11.438Z,2047.00
2023-03-01T11:24:11.466Z,2077.00
2023-03-01T11:25:11.463Z,2060.00
2023-03-01T11:26:12.815Z,2060.00
2023-03-01T11:27:11.407Z,2083.00
2023-03-01T11:28:11.414Z,2071.00
2023-03-01T11:29:11.390Z,2068.00
2023-03-01T11:30:11.401Z,2068.00
2023-03-01T11:31:11.397Z,2066.00
2023-03-01T11:32:11.487Z,2059.00
2023-03-01T11:33:11.440Z,2073.00
2023-03-01T11:34:11.331Z,2064.00
2023-03-01T11:35:11.342Z,2067.00
2023-03-01T11:36:11.333Z,2057.00
2023-03-01T11:37:11.290Z,2063.00
2023-03-01T11:38:11.411Z,2075.00
2023-03-01T11:39:11.278Z,2048.00
2023-03-01T11:40:11.310Z,2079.00
2023-03-01T11:41:11.251Z,2052.00
2023-03-01T11:42:18.651Z,2049.00
2023-03-01T11:43:11.428Z,2071.00
2023-03-01T11:44:11.223Z,2081.00
2023-03-01T11:45:11.218Z,2053.00
2023-03-01T11:46:12.790Z,2076.00
2023-03-01T11:47:11.327Z,2064.00
2023-03-01T11:48:11.250Z,2064.00
2023-03-01T11:49:11.194Z,2041.00
2023-03-01T11:50:11.164Z,2068.00
2023-03-01T11:51:11.166Z,2073.00
2023-03-01T11:52:11.193Z,2043.00
2023-03-01T11:53:11.160Z,2056.00
2023-03-01T11:54:11.130Z,2046.00
2023-03-01T11:55:11.121Z,2070.00
2023-03-01T11:56:11.189Z,2067.00
2023-03-01T11:57:11.167Z,2077.00
2023-03-01T11:58:11.070Z,2062.00
2023-03-01T11:59:11.066Z,2059.00
2023-03-01T12:00:11.084Z,2077.00
2023-03-01T12:01:11.105Z,2070.00
2023-03-01T12:02:11.993Z,2087.00
2023-03-01T12:03:11.051Z,2079.00
2023-03-01T12:04:11.023Z,2081.00
2023-03-01T12:05:11.060Z,2077.00
2023-03-01T12:06:11.026Z,2063.00
2023-03-01T12:07:11.018Z,2053.00
2023-03-01T12:08:10.953Z,2068.00
2023-03-01T12:09:10.967Z,2057.00
2023-03-01T12:10:10.947Z,2063.00
2023-03-01T12:11:10.975Z,2063.00
2023-03-01T12:12:10.932Z,2082.00
2023-03-01T12:13:10.925Z,2062.00
2023-03-01T12:14:10.930Z,2051.00
2023-03-01T12:15:10.929Z,2071.00
2023-03-01T12:16:11.013Z,2051.00
2023-03-01T12:17:10.932Z,2066.00
2023-03-01T12:18:10.918Z,2042.00
2023-03-01T12:19:10.900Z,2059.00
2023-03-01T12:20:10.900Z,2058.00
2023-03-01T12:21:10.876Z,2057.00
2023-03-01T12:22:10.844Z,2041.00
2023-03-01T12:23:19.894Z,2069.00
2023-03-01T12:24:10.870Z,2063.00
2023-03-01T12:25:10.815Z,2059.00
2023-03-01T12:26:12.039Z,2057.00
2023-03-01T12:27:10.785Z,2055.00
2023-03-01T12:28:10.784Z,2050.00
2023-03-01T12:29:10.784Z,2061.00
2023-03-01T12:30:10.791Z,2031.00
2023-03-01T12:31:10.839Z,2065.00
2023-03-01T12:32:10.897Z,2063.00
2023-03-01T12:33:10.803Z,2030.00
2023-03-01T12:34:10.755Z,2063.00
2023-03-01T12:35:10.695Z,2041.00
2023-03-01T12:36:10.710Z,2064.00
2023-03-01T12:37:10.710Z,2061.00
2023-03-01T12:38:10.694Z,2034.00
2023-03-01T12:39:10.698Z,2035.00
2023-03-01T12:40:10.659Z,2046.00
2023-03-01T12:41:10.659Z,2042.00